sensor_id;sensor_type;location;lat;lon;timestamp;pressure;altitude;pressure_sealevel;temperature;humidity
28630;BME280;15817;42.130;24.762;2023-03-04T00:01:55;100006.97;;;5.35;100.00
28630;BME280;15817;42.130;24.762;2023-03-04T00:04:21;100007.94;;;5.40;100.00
28630;BME280;15817;42.130;24.762;2023-03-04T00:06:47;100007.16;;;5.45;100.00
28630;BME280;15817;42.130;24.762;2023-03-04T00:09:18;100012.50;;;5.50;100.00
28630;BME280;15817;42.130;24.762;2023-03-04T00:11:43;100011.53;;;5.45;100.00
28630;BME280;15817;42.130;24.762;2023-03-04T00:14:09;99996.53;;;5.42;100.00
28630;BME280;15817;42.130;24.762;2023-03-04T00:16:37;99994.78;;;5.43;100.00
28630;BME280;15817;42.130;24.762;2023-03-04T00:19:04;99999.22;;;5.45;100.00
28630;BME280;15817;42.130;24.762;2023-03-04T00:21:30;99991.31;;;5.45;100.00
28630;BME280;15817;42.130;24.762;2023-03-04T00:23:56;99999.16;;;5.42;100.00
28630;BME280;15817;42.130;24.762;2023-03-04T00:26:24;100007.22;;;5.49;100.00
28630;BME280;15817;42.130;24.762;2023-03-04T00:28:50;100004.50;;;5.45;100.00
28630;BME280;15817;42.130;24.762;2023-03-04T00:31:15;100011.63;;;5.50;100.00
28630;BME280;15817;42.130;24.762;2023-03-04T00:33:44;99992.16;;;5.41;100.00
28630;BME280;15817;42.130;24.762;2023-03-04T00:36:10;99995.69;;;5.45;100.00
28630;BME280;15817;42.130;24.762;2023-03-04T00:38:39;100004.47;;;5.44;100.00
28630;BME280;15817;42.130;24.762;2023-03-04T00:41:05;100009.78;;;5.45;100.00
28630;BME280;15817;42.130;24.762;2023-03-04T00:43:31;99993.84;;;5.38;100.00
28630;BME280;15817;42.130;24.762;2023-03-04T00:45:57;99994.72;;;5.38;100.00
28630;BME280;15817;42.130;24.762;2023-03-04T00:48:22;100004.50;;;5.45;100.00
28630;BME280;15817;42.130;24.762;2023-03-04T00:50:48;99993.88;;;5.39;100.00
28630;BME280;15817;42.130;24.762;2023-03-04T00:53:16;99997.41;;;5.43;100.00
28630;BME280;15817;42.130;24.762;2023-03-04T00:55:42;100000.06;;;5.41;100.00
28630;BME280;15817;42.130;24.762;2023-03-04T00:58:08;100004.44;;;5.41;100.00
28630;BME280;15817;42.130;24.762;2023-03-04T01:00:33;99998.91;;;5.26;100.00
28630;BME280;15817;42.130;24.762;2023-03-04T01:02:59;99996.25;;;5.24;100.00
28630;BME280;15817;42.130;24.762;2023-03-04T01:05:25;100011.28;;;5.31;100.00
28630;BME280;15817;42.130;24.762;2023-03-04T01:07:52;99982.19;;;5.25;100.00
28630;BME280;15817;42.130;24.762;2023-03-04T01:10:19;100001.59;;;5.29;100.00
28630;BME280;15817;42.130;24.762;2023-03-04T01:12:45;99991.88;;;5.26;100.00
28630;BME280;15817;42.130;24.762;2023-03-04T01:15:12;99984.84;;;5.25;100.00
28630;BME280;15817;42.130;24.762;2023-03-04T01:17:38;99985.75;;;5.27;100.00
28630;BME280;15817;42.130;24.762;2023-03-04T01:20:06;99989.47;;;5.38;100.00
28630;BME280;15817;42.130;24.762;2023-03-04T01:22:34;99981.44;;;5.34;100.00
28630;BME280;15817;42.130;24.762;2023-03-04T01:25:00;99977.00;;;5.30;100.00
28630;BME280;15817;42.130;24.762;2023-03-04T01:27:26;99981.31;;;5.25;100.00
28630;BME280;15817;42.130;24.762;2023-03-04T01:29:51;99990.00;;;5.21;100.00
28630;BME280;15817;42.130;24.762;2023-03-04T01:32:21;99979.38;;;5.15;100.00
28630;BME280;15817;42.130;24.762;2023-03-04T01:34:47;99982.97;;;5.18;100.00
28630;BME280;15817;42.130;24.762;2023-03-04T01:37:13;99982.09;;;5.19;100.00
28630;BME280;15817;42.130;24.762;2023-03-04T01:39:39;99969.78;;;5.18;100.00
28630;BME280;15817;42.130;24.762;2023-03-04T01:42:05;99974.31;;;5.27;100.00
28630;BME280;15817;42.130;24.762;2023-03-04T01:44:31;99971.56;;;5.19;100.00
28630;BME280;15817;42.130;24.762;2023-03-04T01:46:57;99972.44;;;5.21;100.00
28630;BME280;15817;42.130;24.762;2023-03-04T01:49:26;99971.59;;;5.22;100.00
28630;BME280;15817;42.130;24.762;2023-03-04T01:51:53;99960.09;;;5.17;100.00
28630;BME280;15817;42.130;24.762;2023-03-04T01:54:20;99966.28;;;5.19;100.00
28630;BME280;15817;42.130;24.762;2023-03-04T01:56:47;99960.06;;;5.16;100.00
28630;BME280;15817;42.130;24.762;2023-03-04T01:59:22;99967.16;;;5.18;100.00
28630;BME280;15817;42.130;24.762;2023-03-04T02:01:52;99953.94;;;5.17;100.00
28630;BME280;15817;42.130;24.762;2023-03-04T02:04:20;99953.78;;;5.09;100.00
28630;BME280;15817;42.130;24.762;2023-03-04T02:06:48;99974.84;;;5.06;100.00
28630;BME280;15817;42.130;24.762;2023-03-04T02:09:15;99967.72;;;5.02;100.00
28630;BME280;15817;42.130;24.762;2023-03-04T02:11:42;99954.44;;;4.97;100.00
28630;BME280;15817;42.130;24.762;2023-03-04T02:14:10;99966.06;;;5.08;100.00
28630;BME280;15817;42.130;24.762;2023-03-04T02:16:37;99958.16;;;5.08;100.00
28630;BME280;15817;42.130;24.762;2023-03-04T02:19:19;99957.38;;;5.13;100.00
28630;BME280;15817;42.130;24.762;2023-03-04T02:21:49;99953.91;;;5.15;100.00
28630;BME280;15817;42.130;24.762;2023-03-04T02:24:21;99954.84;;;5.19;100.00
28630;BME280;15817;42.130;24.762;2023-03-04T02:26:50;99956.59;;;5.18;100.00
28630;BME280;15817;42.130;24.762;2023-03-04T02:29:17;99953.00;;;5.15;100.00
28630;BME280;15817;42.130;24.762;2023-03-04T02:31:48;99951.38;;;5.23;100.00
28630;BME280;15817;42.130;24.762;2023-03-04T02:34:21;99946.94;;;5.19;100.00
28630;BME280;15817;42.130;24.762;2023-03-04T02:36:49;99958.53;;;5.28;100.00
28630;BME280;15817;42.130;24.762;2023-03-04T02:41:54;99930.38;;;5.27;100.00
28630;BME280;15817;42.130;24.762;2023-03-04T02:44:24;99936.56;;;5.31;100.00
28630;BME280;15817;42.130;24.762;2023-03-04T02:46:51;99936.56;;;5.29;100.00
28630;BME280;15817;42.130;24.762;2023-03-04T02:49:18;99938.28;;;5.27;100.00
28630;BME280;15817;42.130;24.762;2023-03-04T02:51:45;99939.19;;;5.28;100.00
28630;BME280;15817;42.130;24.762;2023-03-04T02:54:15;99941.84;;;5.31;100.00
28630;BME280;15817;42.130;24.762;2023-03-04T02:56:50;99928.53;;;5.23;100.00
28630;BME280;15817;42.130;24.762;2023-03-04T02:59:17;99939.19;;;5.28;100.00
28630;BME280;15817;42.130;24.762;2023-03-04T03:01:44;99940.00;;;5.25;100.00
28630;BME280;15817;42.130;24.762;2023-03-04T03:04:10;99940.06;;;5.28;100.00
28630;BME280;15817;42.130;24.762;2023-03-04T03:06:35;99939.06;;;5.22;100.00
28630;BME280;15817;42.130;24.762;2023-03-04T03:09:02;99945.25;;;5.24;100.00
28630;BME280;15817;42.130;24.762;2023-03-04T03:11:28;99952.22;;;5.20;100.00
28630;BME280;15817;42.130;24.762;2023-03-04T03:13:54;99953.94;;;5.17;100.00
28630;BME280;15817;42.130;24.762;2023-03-04T03:16:20;99966.31;;;5.22;100.00
28630;BME280;15817;42.130;24.762;2023-03-04T03:18:48;99968.97;;;5.24;100.00
28630;BME280;15817;42.130;24.762;2023-03-04T03:21:14;99958.19;;;5.10;100.00
28630;BME280;15817;42.130;24.762;2023-03-04T03:23:40;99966.19;;;5.15;100.00
28630;BME280;15817;42.130;24.762;2023-03-04T03:26:06;99959.03;;;5.06;100.00
28630;BME280;15817;42.130;24.762;2023-03-04T03:28:31;99967.81;;;5.06;100.00
28630;BME280;15817;42.130;24.762;2023-03-04T03:30:59;99971.41;;;5.12;100.00
28630;BME280;15817;42.130;24.762;2023-03-04T03:33:24;99971.38;;;5.10;100.00
28630;BME280;15817;42.130;24.762;2023-03-04T03:35:53;99958.16;;;5.07;100.00
28630;BME280;15817;42.130;24.762;2023-03-04T03:38:21;99963.47;;;5.10;100.00
28630;BME280;15817;42.130;24.762;2023-03-04T03:40:47;99973.19;;;5.13;100.00
28630;BME280;15817;42.130;24.762;2023-03-04T03:43:12;99965.28;;;5.13;100.00
28630;BME280;15817;42.130;24.762;2023-03-04T03:45:38;99957.38;;;5.13;100.00
28630;BME280;15817;42.130;24.762;2023-03-04T03:48:07;99959.09;;;5.10;100.00
28630;BME280;15817;42.130;24.762;2023-03-04T03:50:33;99970.56;;;5.14;100.00
28630;BME280;15817;42.130;24.762;2023-03-04T03:52:58;99974.09;;;5.15;100.00
28630;BME280;15817;42.130;24.762;2023-03-04T03:55:24;99967.94;;;5.14;100.00
28630;BME280;15817;42.130;24.762;2023-03-04T03:57:50;99959.91;;;5.06;100.00
28630;BME280;15817;42.130;24.762;2023-03-04T04:00:35;99979.41;;;5.16;100.00
28630;BME280;15817;42.130;24.762;2023-03-04T04:03:03;99960.03;;;5.14;100.00
28630;BME280;15817;42.130;24.762;2023-03-04T04:05:32;99945.78;;;5.03;100.00
28630;BME280;15817;42.130;24.762;2023-03-04T04:07:58;99963.44;;;5.08;100.00
28630;BME280;15817;42.130;24.762;2023-03-04T04:10:43;99970.50;;;5.11;100.00
28630;BME280;15817;42.130;24.762;2023-03-04T04:13:12;99957.28;;;5.06;100.00
28630;BME280;15817;42.130;24.762;2023-03-04T04:15:38;99946.59;;;5.00;100.00
28630;BME280;15817;42.130;24.762;2023-03-04T04:18:06;99959.78;;;5.00;100.00
28630;BME280;15817;42.130;24.762;2023-03-04T04:20:32;99970.28;;;4.99;100.00
28630;BME280;15817;42.130;24.762;2023-03-04T04:22:58;99963.88;;;4.85;100.00
28630;BME280;15817;42.130;24.762;2023-03-04T04:25:24;99952.44;;;4.83;100.00
28630;BME280;15817;42.130;24.762;2023-03-04T04:27:50;99965.69;;;4.87;100.00
28630;BME280;15817;42.130;24.762;2023-03-04T04:30:16;99965.69;;;4.87;100.00
28630;BME280;15817;42.130;24.762;2023-03-04T04:32:43;99977.22;;;4.92;100.00
28630;BME280;15817;42.130;24.762;2023-03-04T04:35:09;99973.72;;;4.93;100.00
28630;BME280;15817;42.130;24.762;2023-03-04T04:37:35;99991.38;;;4.99;100.00
28630;BME280;15817;42.130;24.762;2023-03-04T04:40:01;99987.03;;;5.01;100.00
28630;BME280;15817;42.130;24.762;2023-03-04T04:42:28;99975.53;;;4.96;100.00
28630;BME280;15817;42.130;24.762;2023-03-04T04:44:54;99964.88;;;4.90;100.00
28630;BME280;15817;42.130;24.762;2023-03-04T04:47:21;99972.84;;;4.93;100.00
28630;BME280;15817;42.130;24.762;2023-03-04T04:49:47;99978.13;;;4.94;100.00
28630;BME280;15817;42.130;24.762;2023-03-04T04:52:13;99984.31;;;4.96;100.00
28630;BME280;15817;42.130;24.762;2023-03-04T04:54:42;99981.66;;;4.96;100.00
28630;BME280;15817;42.130;24.762;2023-03-04T04:57:08;99973.66;;;4.90;100.00
28630;BME280;15817;42.130;24.762;2023-03-04T04:59:34;99986.91;;;4.93;100.00
28630;BME280;15817;42.130;24.762;2023-03-04T05:02:00;99999.25;;;4.97;100.00
28630;BME280;15817;42.130;24.762;2023-03-04T05:04:26;99995.72;;;4.97;100.00
28630;BME280;15817;42.130;24.762;2023-03-04T05:06:52;99992.94;;;4.88;100.00
28630;BME280;15817;42.130;24.762;2023-03-04T05:09:17;99978.91;;;4.89;100.00
28630;BME280;15817;42.130;24.762;2023-03-04T05:11:45;99994.78;;;4.92;100.00
28630;BME280;15817;42.130;24.762;2023-03-04T05:14:11;100000.88;;;4.89;100.00
28630;BME280;15817;42.130;24.762;2023-03-04T05:16:36;100001.66;;;4.85;100.00
28630;BME280;15817;42.130;24.762;2023-03-04T05:19:02;99997.16;;;4.78;100.00
28630;BME280;15817;42.130;24.762;2023-03-04T05:21:29;100010.47;;;4.84;100.00
28630;BME280;15817;42.130;24.762;2023-03-04T05:23:55;100005.13;;;4.81;100.00
28630;BME280;15817;42.130;24.762;2023-03-04T05:26:20;100008.63;;;4.82;100.00
28630;BME280;15817;42.130;24.762;2023-03-04T05:28:46;100003.28;;;4.77;100.00
28630;BME280;15817;42.130;24.762;2023-03-04T05:31:12;100002.31;;;4.73;100.00
28630;BME280;15817;42.130;24.762;2023-03-04T05:33:38;100010.22;;;4.72;100.00
28630;BME280;15817;42.130;24.762;2023-03-04T05:36:05;99998.75;;;4.70;100.00
28630;BME280;15817;42.130;24.762;2023-03-04T05:38:32;100000.63;;;4.77;100.00
28630;BME280;15817;42.130;24.762;2023-03-04T05:41:00;100000.69;;;4.80;100.00
28630;BME280;15817;42.130;24.762;2023-03-04T05:43:27;99990.06;;;4.76;100.00
28630;BME280;15817;42.130;24.762;2023-03-04T05:45:54;99991.69;;;4.69;100.00
28630;BME280;15817;42.130;24.762;2023-03-04T05:48:20;100013.53;;;4.63;100.00
28630;BME280;15817;42.130;24.762;2023-03-04T05:50:46;100013.41;;;4.57;100.00
28630;BME280;15817;42.130;24.762;2023-03-04T05:53:12;100019.41;;;4.49;100.00
28630;BME280;15817;42.130;24.762;2023-03-04T05:55:37;100011.44;;;4.46;100.00
28630;BME280;15817;42.130;24.762;2023-03-04T05:58:03;99997.47;;;4.50;100.00
28630;BME280;15817;42.130;24.762;2023-03-04T06:00:35;100012.72;;;4.66;100.00
28630;BME280;15817;42.130;24.762;2023-03-04T06:03:03;100017.91;;;4.63;100.00
28630;BME280;15817;42.130;24.762;2023-03-04T06:05:36;100019.41;;;4.49;100.00
28630;BME280;15817;42.130;24.762;2023-03-04T06:08:02;100021.81;;;4.40;100.00
28630;BME280;15817;42.130;24.762;2023-03-04T06:10:27;100011.28;;;4.40;100.00
28630;BME280;15817;42.130;24.762;2023-03-04T06:12:53;100010.50;;;4.44;100.00
28630;BME280;15817;42.130;24.762;2023-03-04T06:15:22;100023.56;;;4.38;100.00
28630;BME280;15817;42.130;24.762;2023-03-04T06:17:54;100031.53;;;4.42;100.00
28630;BME280;15817;42.130;24.762;2023-03-04T06:20:20;100013.09;;;4.42;100.00
28630;BME280;15817;42.130;24.762;2023-03-04T06:22:49;100034.53;;;4.59;100.00
28630;BME280;15817;42.130;24.762;2023-03-04T06:25:18;100036.31;;;4.60;100.00
28630;BME280;15817;42.130;24.762;2023-03-04T06:27:47;100033.53;;;4.54;100.00
28630;BME280;15817;42.130;24.762;2023-03-04T06:30:14;100044.22;;;4.60;100.00
28630;BME280;15817;42.130;24.762;2023-03-04T06:32:39;100043.41;;;4.64;100.00
28630;BME280;15817;42.130;24.762;2023-03-04T06:35:10;100053.00;;;4.62;100.00
28630;BME280;15817;42.130;24.762;2023-03-04T06:37:36;100047.81;;;4.65;100.00
28630;BME280;15817;42.130;24.762;2023-03-04T06:40:02;100038.75;;;4.52;100.00
28630;BME280;15817;42.130;24.762;2023-03-04T06:42:29;100041.31;;;4.48;100.00
28630;BME280;15817;42.130;24.762;2023-03-04T06:44:55;100044.84;;;4.48;100.00
28630;BME280;15817;42.130;24.762;2023-03-04T06:47:21;100055.56;;;4.57;100.00
28630;BME280;15817;42.130;24.762;2023-03-04T06:49:47;100046.78;;;4.57;100.00
28630;BME280;15817;42.130;24.762;2023-03-04T06:52:14;100041.34;;;4.51;100.00
28630;BME280;15817;42.130;24.762;2023-03-04T06:55:16;100063.53;;;4.60;100.00
28630;BME280;15817;42.130;24.762;2023-03-04T06:58:29;100048.25;;;4.44;100.00
28630;BME280;15817;42.130;24.762;2023-03-04T07:00:55;100075.66;;;4.54;100.00
28630;BME280;15817;42.130;24.762;2023-03-04T07:03:20;100049.25;;;4.51;100.00
28630;BME280;15817;42.130;24.762;2023-03-04T07:05:49;100066.22;;;4.63;100.00
28630;BME280;15817;42.130;24.762;2023-03-04T07:08:15;100067.13;;;4.65;100.00
28630;BME280;15817;42.130;24.762;2023-03-04T07:10:40;100062.66;;;4.60;100.00
28630;BME280;15817;42.130;24.762;2023-03-04T07:13:06;100058.28;;;4.60;100.00
28630;BME280;15817;42.130;24.762;2023-03-04T07:15:32;100057.63;;;4.72;100.00
28630;BME280;15817;42.130;24.762;2023-03-04T07:18:01;100056.81;;;4.76;100.00
28630;BME280;15817;42.130;24.762;2023-03-04T07:20:36;100050.00;;;4.87;100.00
28630;BME280;15817;42.130;24.762;2023-03-04T07:23:02;100053.69;;;4.94;100.00
28630;BME280;15817;42.130;24.762;2023-03-04T07:25:28;100057.38;;;5.03;100.00
28630;BME280;15817;42.130;24.762;2023-03-04T07:27:53;100055.56;;;5.01;100.00
28630;BME280;15817;42.130;24.762;2023-03-04T07:30:19;100061.75;;;5.03;100.00
28630;BME280;15817;42.130;24.762;2023-03-04T07:32:56;100060.84;;;5.01;100.00
28630;BME280;15817;42.130;24.762;2023-03-04T07:35:27;100045.84;;;4.98;100.00
28630;BME280;15817;42.130;24.762;2023-03-04T07:37:55;100044.16;;;5.02;100.00
28630;BME280;15817;42.130;24.762;2023-03-04T07:40:21;100030.19;;;5.06;100.00
28630;BME280;15817;42.130;24.762;2023-03-04T07:42:53;100046.13;;;5.14;100.00
28630;BME280;15817;42.130;24.762;2023-03-04T07:45:28;100048.91;;;5.21;100.00
28630;BME280;15817;42.130;24.762;2023-03-04T07:47:58;100041.06;;;5.24;100.00
28630;BME280;15817;42.130;24.762;2023-03-04T07:50:24;100032.31;;;5.27;100.00
28630;BME280;15817;42.130;24.762;2023-03-04T07:52:52;100027.84;;;5.23;100.00
28630;BME280;15817;42.130;24.762;2023-03-04T07:55:18;100017.34;;;5.26;100.00
28630;BME280;15817;42.130;24.762;2023-03-04T07:58:02;100031.53;;;5.32;100.00
28630;BME280;15817;42.130;24.762;2023-03-04T08:00:28;100028.03;;;5.33;100.00
28630;BME280;15817;42.130;24.762;2023-03-04T08:02:57;100039.63;;;5.43;100.00
28630;BME280;15817;42.130;24.762;2023-03-04T08:05:25;100028.19;;;5.42;100.00
28630;BME280;15817;42.130;24.762;2023-03-04T08:07:51;100024.69;;;5.43;100.00
28630;BME280;15817;42.130;24.762;2023-03-04T08:10:22;100020.31;;;5.44;100.00
28630;BME280;15817;42.130;24.762;2023-03-04T08:12:58;100025.66;;;5.49;100.00
28630;BME280;15817;42.130;24.762;2023-03-04T08:15:29;100015.16;;;5.50;100.00
28630;BME280;15817;42.130;24.762;2023-03-04T08:18:00;100025.75;;;5.55;100.00
28630;BME280;15817;42.130;24.762;2023-03-04T08:20:29;100038.28;;;5.68;100.00
28630;BME280;15817;42.130;24.762;2023-03-04T08:23:04;100033.00;;;5.65;100.00
28630;BME280;15817;42.130;24.762;2023-03-04T08:25:47;100034.72;;;5.63;100.00
28630;BME280;15817;42.130;24.762;2023-03-04T08:28:19;100039.16;;;5.65;100.00
28630;BME280;15817;42.130;24.762;2023-03-04T08:31:12;100028.50;;;5.61;100.00
28630;BME280;15817;42.130;24.762;2023-03-04T08:33:44;100036.44;;;5.61;100.00
28630;BME280;15817;42.130;24.762;2023-03-04T08:36:14;100040.94;;;5.68;100.00
28630;BME280;15817;42.130;24.762;2023-03-04T08:38:46;100035.63;;;5.66;100.00
28630;BME280;15817;42.130;24.762;2023-03-04T08:41:37;100026.97;;;5.73;100.00
28630;BME280;15817;42.130;24.762;2023-03-04T08:44:08;100030.50;;;5.77;100.00
28630;BME280;15817;42.130;24.762;2023-03-04T08:46:41;100042.09;;;5.85;100.00
28630;BME280;15817;42.130;24.762;2023-03-04T08:49:13;100035.03;;;5.82;100.00
28630;BME280;15817;42.130;24.762;2023-03-04T08:51:42;100023.63;;;5.85;100.00
28630;BME280;15817;42.130;24.762;2023-03-04T08:54:10;100022.00;;;5.93;100.00
28630;BME280;15817;42.130;24.762;2023-03-04T08:56:36;100027.44;;;6.02;100.00
28630;BME280;15817;42.130;24.762;2023-03-04T08:59:02;100036.47;;;6.18;100.00
28630;BME280;15817;42.130;24.762;2023-03-04T09:01:27;100026.97;;;6.31;100.00
28630;BME280;15817;42.130;24.762;2023-03-04T09:03:53;100011.25;;;6.41;100.00
28630;BME280;15817;42.130;24.762;2023-03-04T09:06:19;100012.38;;;6.60;100.00
28630;BME280;15817;42.130;24.762;2023-03-04T09:08:48;100013.41;;;6.73;100.00
28630;BME280;15817;42.130;24.762;2023-03-04T09:11:16;100002.97;;;6.85;100.00
28630;BME280;15817;42.130;24.762;2023-03-04T09:13:42;100010.22;;;7.03;100.00
28630;BME280;15817;42.130;24.762;2023-03-04T09:16:10;100005.84;;;7.06;100.00
28630;BME280;15817;42.130;24.762;2023-03-04T09:18:40;100012.19;;;7.22;100.00
28630;BME280;15817;42.130;24.762;2023-03-04T09:21:09;100000.69;;;7.20;100.00
28630;BME280;15817;42.130;24.762;2023-03-04T09:23:41;99990.97;;;7.14;100.00
28630;BME280;15817;42.130;24.762;2023-03-04T09:26:14;99993.56;;;7.11;100.00
28630;BME280;15817;42.130;24.762;2023-03-04T09:28:44;99998.94;;;7.20;100.00
28630;BME280;15817;42.130;24.762;2023-03-04T09:31:21;99987.47;;;7.21;100.00
28630;BME280;15817;42.130;24.762;2023-03-04T09:33:58;99984.94;;;7.34;100.00
28630;BME280;15817;42.130;24.762;2023-03-04T09:36:24;99993.09;;;7.58;100.00
28630;BME280;15817;42.130;24.762;2023-03-04T09:38:57;99976.38;;;7.65;100.00
28630;BME280;15817;42.130;24.762;2023-03-04T09:41:36;99975.56;;;7.72;100.00
28630;BME280;15817;42.130;24.762;2023-03-04T09:44:28;99987.09;;;7.85;100.00
28630;BME280;15817;42.130;24.762;2023-03-04T09:46:57;99988.03;;;7.88;100.00
28630;BME280;15817;42.130;24.762;2023-03-04T09:49:25;99979.25;;;7.95;100.00
28630;BME280;15817;42.130;24.762;2023-03-04T09:52:17;99988.13;;;8.02;100.00
28630;BME280;15817;42.130;24.762;2023-03-04T09:55:03;99979.31;;;8.08;100.00
28630;BME280;15817;42.130;24.762;2023-03-04T09:57:52;99984.72;;;8.27;100.00
28630;BME280;15817;42.130;24.762;2023-03-04T10:00:32;99975.03;;;8.29;100.00
28630;BME280;15817;42.130;24.762;2023-03-04T10:03:21;99976.72;;;8.21;100.00
28630;BME280;15817;42.130;24.762;2023-03-04T10:06:05;99978.47;;;8.19;100.00
28630;BME280;15817;42.130;24.762;2023-03-04T10:09:05;99980.28;;;8.19;100.00
28630;BME280;15817;42.130;24.762;2023-03-04T10:12:01;99968.81;;;8.24;100.00
28630;BME280;15817;42.130;24.762;2023-03-04T10:15:01;99961.81;;;8.34;100.00
28630;BME280;15817;42.130;24.762;2023-03-04T10:17:37;99966.28;;;8.41;100.00
28630;BME280;15817;42.130;24.762;2023-03-04T10:20:14;99957.41;;;8.33;100.00
28630;BME280;15817;42.130;24.762;2023-03-04T10:23:15;99947.63;;;8.27;100.00
28630;BME280;15817;42.130;24.762;2023-03-04T10:25:54;99943.25;;;8.29;100.00
28630;BME280;15817;42.130;24.762;2023-03-04T10:28:43;99944.16;;;8.36;100.00
28630;BME280;15817;42.130;24.762;2023-03-04T10:34:04;99926.47;;;8.33;100.00
28630;BME280;15817;42.130;24.762;2023-03-04T10:37:02;99924.75;;;8.43;100.00
28630;BME280;15817;42.130;24.762;2023-03-04T10:39:40;99927.44;;;8.57;100.00
28630;BME280;15817;42.130;24.762;2023-03-04T10:48:47;99906.25;;;8.58;100.00
28630;BME280;15817;42.130;24.762;2023-03-04T10:51:26;99907.13;;;8.57;100.00
28630;BME280;15817;42.130;24.762;2023-03-04T10:54:28;99914.22;;;8.63;100.00
28630;BME280;15817;42.130;24.762;2023-03-04T10:57:03;99899.19;;;8.53;100.00
28630;BME280;15817;42.130;24.762;2023-03-04T10:59:54;99900.94;;;8.55;100.00
28630;BME280;15817;42.130;24.762;2023-03-04T11:02:23;99899.19;;;8.59;100.00
28630;BME280;15817;42.130;24.762;2023-03-04T11:07:45;99888.63;;;8.89;100.00
28630;BME280;15817;42.130;24.762;2023-03-04T11:13:13;99864.75;;;8.89;100.00
28630;BME280;15817;42.130;24.762;2023-03-04T11:15:57;99860.38;;;8.99;100.00
28630;BME280;15817;42.130;24.762;2023-03-04T11:18:47;99870.94;;;9.14;100.00
28630;BME280;15817;42.130;24.762;2023-03-04T11:21:40;99835.59;;;9.21;100.00
28630;BME280;15817;42.130;24.762;2023-03-04T11:24:24;99848.84;;;9.15;100.00
28630;BME280;15817;42.130;24.762;2023-03-04T11:32:55;99849.75;;;8.97;100.00
28630;BME280;15817;42.130;24.762;2023-03-04T11:36:05;99847.97;;;8.86;100.00
28630;BME280;15817;42.130;24.762;2023-03-04T11:38:49;99830.28;;;8.79;100.00
28630;BME280;15817;42.130;24.762;2023-03-04T11:41:41;99842.66;;;8.89;100.00
28630;BME280;15817;42.130;24.762;2023-03-04T11:44:26;99830.28;;;8.85;100.00
28630;BME280;15817;42.130;24.762;2023-03-04T12:18:19;99809.88;;;9.54;100.00
28630;BME280;15817;42.130;24.762;2023-03-04T12:24:02;99797.41;;;9.71;100.00
28630;BME280;15817;42.130;24.762;2023-03-04T12:32:21;99789.44;;;9.71;100.00
28630;BME280;15817;42.130;24.762;2023-03-04T12:49:46;99781.41;;;9.81;100.00
28630;BME280;15817;42.130;24.762;2023-03-04T12:52:32;99777.88;;;9.89;100.00
28630;BME280;15817;42.130;24.762;2023-03-04T12:55:11;99771.63;;;9.93;100.00
28630;BME280;15817;42.130;24.762;2023-03-04T12:57:56;99755.75;;;9.82;100.00
28630;BME280;15817;42.130;24.762;2023-03-04T13:10:32;99749.53;;;9.86;100.00
28630;BME280;15817;42.130;24.762;2023-03-04T13:13:38;99752.19;;;9.89;100.00
28630;BME280;15817;42.130;24.762;2023-03-04T13:28:41;99715.00;;;9.91;100.00
28630;BME280;15817;42.130;24.762;2023-03-04T13:38:32;99724.63;;;10.05;100.00
28630;BME280;15817;42.130;24.762;2023-03-04T14:46:01;99653.84;;;9.94;100.00
28630;BME280;15817;42.130;24.762;2023-03-04T14:48:33;99633.53;;;9.87;100.00
28630;BME280;15817;42.130;24.762;2023-03-04T14:51:38;99650.28;;;9.98;100.00
28630;BME280;15817;42.130;24.762;2023-03-04T14:54:44;99645.84;;;9.98;100.00
28630;BME280;15817;42.130;24.762;2023-03-04T14:57:51;99633.53;;;9.91;100.00
28630;BME280;15817;42.130;24.762;2023-03-04T15:00:37;99633.47;;;9.93;100.00
28630;BME280;15817;42.130;24.762;2023-03-04T15:03:27;99629.09;;;9.89;100.00
28630;BME280;15817;42.130;24.762;2023-03-04T15:06:53;99630.00;;;9.89;100.00
28630;BME280;15817;42.130;24.762;2023-03-04T15:09:58;99616.72;;;9.86;100.00
28630;BME280;15817;42.130;24.762;2023-03-04T15:13:02;99624.69;;;9.89;100.00
28630;BME280;15817;42.130;24.762;2023-03-04T15:15:47;99605.28;;;9.78;100.00
28630;BME280;15817;42.130;24.762;2023-03-04T15:18:38;99607.06;;;9.73;100.00
28630;BME280;15817;42.130;24.762;2023-03-04T15:22:18;99605.31;;;9.72;100.00
28630;BME280;15817;42.130;24.762;2023-03-04T15:33:38;99595.63;;;9.66;100.00
28630;BME280;15817;42.130;24.762;2023-03-04T16:01:15;99584.22;;;9.48;100.00
28630;BME280;15817;42.130;24.762;2023-03-04T16:04:25;99580.72;;;9.44;100.00
28630;BME280;15817;42.130;24.762;2023-03-04T16:08:05;99594.00;;;9.44;100.00
28630;BME280;15817;42.130;24.762;2023-03-04T16:14:20;99584.34;;;9.32;100.00
28630;BME280;15817;42.130;24.762;2023-03-04T16:17:16;99590.53;;;9.31;100.00
28630;BME280;15817;42.130;24.762;2023-03-04T17:01:29;99605.63;;;9.13;100.00
28630;BME280;15817;42.130;24.762;2023-03-04T17:08:37;99620.66;;;9.20;100.00
28630;BME280;15817;42.130;24.762;2023-03-04T17:26:57;99594.19;;;9.06;100.00
28630;BME280;15817;42.130;24.762;2023-03-04T17:34:01;99606.53;;;9.12;100.00
28630;BME280;15817;42.130;24.762;2023-03-04T17:45:31;99623.34;;;9.07;100.00
28630;BME280;15817;42.130;24.762;2023-03-04T17:48:11;99626.91;;;9.08;100.00
28630;BME280;15817;42.130;24.762;2023-03-04T17:55:30;99611.88;;;9.05;100.00
28630;BME280;15817;42.130;24.762;2023-03-04T17:58:38;99606.59;;;8.96;100.00
28630;BME280;15817;42.130;24.762;2023-03-04T18:01:40;99614.53;;;9.01;100.00
28630;BME280;15817;42.130;24.762;2023-03-04T18:05:00;99610.13;;;8.97;100.00
28630;BME280;15817;42.130;24.762;2023-03-04T18:07:41;99613.69;;;8.94;100.00